Time;durP1;ratioP1;P1;durP2;ratioP2;P2;SDS_P1;SDS_P2;PMS_P1;PMS_P2;Temp;Humidity;BMP_temperature;BMP_pressure;BME280_temperature;BME280_humidity;BME280_pressure;Samples;Min_cycle;Max_cycle;Signal;HPM_P1;HPM_P2
2024/01/15 00:01:36;;;;;;;15.30;10.00;;;;;;;2.30;84.02;98029.00;130578;1263;106210;-74
2024/01/15 00:04:42;;;;;;;15.30;9.50;;;;;;;2.26;84.57;98025.19;130562;1260;108722;-74
2024/01/15 00:07:48;;;;;;;25.90;19.10;;;;;;;2.25;84.47;98020.58;130581;1268;108496;-73
2024/01/15 00:10:53;;;;;;;17.20;11.30;;;;;;;2.27;84.54;98016.28;130551;1261;107713;-74
2024/01/15 00:13:59;;;;;;;17.50;12.40;;;;;;;2.32;84.65;98012.00;130580;1259;107385;-74
2024/01/15 00:17:05;;;;;;;20.40;12.80;;;;;;;2.35;84.68;98006.76;130599;1259;107681;-74
2024/01/15 00:20:12;;;;;;;27.90;20.10;;;;;;;2.39;84.46;97997.98;130552;1263;109046;-74
2024/01/15 00:23:17;;;;;;;31.80;20.90;;;;;;;2.39;84.50;97987.43;130590;1269;106068;-74
2024/01/15 00:26:23;;;;;;;29.80;18.10;;;;;;;2.38;84.35;97986.50;130591;1259;108476;-74
2024/01/15 00:29:28;;;;;;;54.20;29.60;;;;;;;2.34;84.43;97980.73;130524;1261;106986;-74
2024/01/15 00:32:34;;;;;;;101.80;53.40;;;;;;;2.31;84.65;97977.29;130604;1260;108585;-74
2024/01/15 00:35:39;;;;;;;118.00;64.30;;;;;;;2.26;84.36;97972.76;130562;1259;106221;-74
2024/01/15 00:38:47;;;;;;;28.30;16.40;;;;;;;2.20;84.49;97968.84;130520;1259;107029;-73
2024/01/15 00:41:52;;;;;;;52.90;29.70;;;;;;;2.14;84.46;97962.40;130532;1259;108622;-73
2024/01/15 00:44:58;;;;;;;37.80;21.60;;;;;;;2.14;84.60;97959.38;130573;1267;109439;-73
2024/01/15 00:48:04;;;;;;;17.20;10.10;;;;;;;2.20;84.71;97956.05;130604;1259;108685;-73
2024/01/15 00:51:09;;;;;;;54.60;32.10;;;;;;;2.26;84.66;97945.95;130595;1259;108689;-73
2024/01/15 00:54:15;;;;;;;40.80;25.40;;;;;;;2.28;84.30;97945.98;130552;1260;108814;-73
2024/01/15 00:57:20;;;;;;;58.40;37.20;;;;;;;2.30;84.44;97936.16;130542;1258;109199;-73
2024/01/15 01:00:26;;;;;;;31.40;19.30;;;;;;;2.31;84.24;97934.72;130542;1268;106782;-73
2024/01/15 01:03:32;;;;;;;36.10;22.80;;;;;;;2.28;84.19;97933.04;130648;1259;106341;-73
2024/01/15 01:06:38;;;;;;;24.10;14.90;;;;;;;2.25;84.21;97939.16;130566;1259;106530;-73
2024/01/15 01:09:43;;;;;;;36.40;23.80;;;;;;;2.21;84.30;97944.59;130553;1257;108335;-73
2024/01/15 01:12:49;;;;;;;74.60;43.50;;;;;;;2.15;84.26;97937.73;130604;1260;106280;-74
2024/01/15 01:15:55;;;;;;;30.70;18.00;;;;;;;2.11;84.15;97935.35;130466;1259;108608;-73
2024/01/15 01:19:00;;;;;;;37.40;22.50;;;;;;;2.06;84.19;97926.38;130489;1261;107653;-71
2024/01/15 01:22:06;;;;;;;30.90;18.60;;;;;;;2.01;84.16;97922.84;130409;1258;107111;-74
2024/01/15 01:25:12;;;;;;;25.10;15.40;;;;;;;2.04;84.26;97916.93;130628;1267;108275;-75
2024/01/15 01:28:17;;;;;;;49.80;31.50;;;;;;;2.08;84.16;97916.68;130518;1258;107359;-75
2024/01/15 01:31:23;;;;;;;42.60;26.90;;;;;;;2.12;83.96;97913.89;130600;1268;107482;-73
2024/01/15 01:34:30;;;;;;;32.10;20.10;;;;;;;2.11;83.94;97906.41;130563;1259;107350;-74
2024/01/15 01:37:35;;;;;;;49.10;29.30;;;;;;;2.10;84.04;97897.77;130509;1258;109110;-74
2024/01/15 01:40:41;;;;;;;22.70;13.70;;;;;;;2.11;83.86;97880.05;130530;1260;108694;-74
2024/01/15 01:43:47;;;;;;;33.30;21.10;;;;;;;2.10;83.96;97881.13;130532;1254;107675;-74
2024/01/15 01:46:52;;;;;;;30.60;18.00;;;;;;;2.07;83.95;97885.21;130634;1257;108711;-75
2024/01/15 01:49:58;;;;;;;36.90;22.80;;;;;;;2.07;84.04;97876.30;130563;1258;108557;-75
2024/01/15 01:53:05;;;;;;;18.10;11.40;;;;;;;2.08;84.13;97871.87;130565;1260;108734;-74
2024/01/15 01:56:11;;;;;;;27.80;18.20;;;;;;;2.11;84.09;97868.73;130569;1265;108771;-75
2024/01/15 01:59:17;;;;;;;19.60;12.60;;;;;;;2.16;84.15;97865.59;130554;1260;107554;-73
2024/01/15 02:02:23;;;;;;;23.80;15.50;;;;;;;2.19;83.95;97864.42;130634;1260;107100;-74
2024/01/15 02:05:29;;;;;;;19.00;11.20;;;;;;;2.20;84.02;97860.61;130564;1254;107640;-74
2024/01/15 02:08:35;;;;;;;17.80;11.50;;;;;;;2.18;83.84;97856.23;130599;1260;106503;-74
2024/01/15 02:11:42;;;;;;;26.90;18.20;;;;;;;2.15;84.10;97857.89;130579;1267;106351;-74
2024/01/15 02:14:47;;;;;;;17.70;11.50;;;;;;;2.12;84.24;97847.89;130575;1255;106324;-74
2024/01/15 02:18:04;;;;;;;21.10;12.90;;;;;;;2.07;84.32;97840.20;130597;1258;107670;-74
2024/01/15 02:21:10;;;;;;;24.10;14.60;;;;;;;2.03;84.32;97832.05;130557;1260;108733;-75
2024/01/15 02:24:16;;;;;;;17.70;10.20;;;;;;;2.02;84.33;97830.23;130559;1267;106662;-72
2024/01/15 02:27:22;;;;;;;20.60;11.80;;;;;;;2.06;84.33;97829.81;130584;1260;107641;-73
2024/01/15 02:30:29;;;;;;;24.80;14.70;;;;;;;2.10;84.31;97820.23;130591;1254;107805;-74
2024/01/15 02:33:35;;;;;;;17.10;10.60;;;;;;;2.15;84.25;97820.77;130688;1259;106678;-75
2024/01/15 02:36:40;;;;;;;17.90;11.10;;;;;;;2.18;84.38;97815.59;130555;1260;106266;-73
2024/01/15 02:39:46;;;;;;;16.20;10.70;;;;;;;2.18;84.17;97813.42;130567;1259;106420;-73
2024/01/15 02:42:52;;;;;;;15.90;9.80;;;;;;;2.17;84.19;97804.60;130570;1261;106239;-75
2024/01/15 02:45:57;;;;;;;13.80;8.80;;;;;;;2.17;84.09;97799.86;130546;1259;107303;-74
2024/01/15 02:49:02;;;;;;;16.50;10.30;;;;;;;2.14;84.13;97789.27;130654;1258;108686;-74
2024/01/15 02:52:08;;;;;;;16.60;9.90;;;;;;;2.13;84.12;97778.90;130592;1257;107196;-75
2024/01/15 02:55:14;;;;;;;19.80;13.50;;;;;;;2.10;84.17;97779.59;130541;1257;106888;-74
2024/01/15 02:58:19;;;;;;;17.00;11.10;;;;;;;2.06;84.05;97778.41;130542;1256;106045;-74
2024/01/15 03:01:25;;;;;;;14.60;8.30;;;;;;;2.04;84.25;97776.34;130613;1258;107096;-75
2024/01/15 03:04:30;;;;;;;15.60;10.00;;;;;;;2.07;84.19;97769.19;130591;1260;108726;-75
2024/01/15 03:07:36;;;;;;;17.00;11.40;;;;;;;2.10;83.95;97765.85;130559;1257;107746;-75
2024/01/15 03:10:42;;;;;;;15.60;10.80;;;;;;;2.12;83.89;97760.55;130580;1259;107018;-75
2024/01/15 03:13:47;;;;;;;15.30;9.70;;;;;;;2.10;83.71;97758.16;130579;1260;106170;-75
2024/01/15 03:16:53;;;;;;;15.50;10.10;;;;;;;2.08;83.94;97753.43;130581;1259;107025;-73
2024/01/15 03:19:59;;;;;;;15.30;9.70;;;;;;;2.08;83.93;97747.69;130560;1259;106498;-74
2024/01/15 03:23:04;;;;;;;13.40;9.30;;;;;;;2.06;83.76;97740.90;130562;1258;106855;-74
2024/01/15 03:26:10;;;;;;;17.70;10.90;;;;;;;2.01;83.79;97738.56;130549;1261;107673;-74
2024/01/15 03:29:15;;;;;;;16.70;9.90;;;;;;;1.98;83.75;97731.39;130535;1259;106217;-74
2024/01/15 03:32:21;;;;;;;20.30;11.30;;;;;;;1.96;83.77;97730.64;130612;1258;106628;-74
2024/01/15 03:35:29;;;;;;;19.80;11.70;;;;;;;1.98;84.00;97730.27;130587;1257;107589;-75
2024/01/15 03:38:34;;;;;;;16.90;10.10;;;;;;;2.00;83.97;97724.35;130514;1258;114817;-74
2024/01/15 03:41:40;;;;;;;16.20;10.30;;;;;;;1.97;84.13;97728.27;130539;1270;108639;-73
2024/01/15 03:44:46;;;;;;;13.40;8.30;;;;;;;1.95;84.20;97721.66;130571;1257;107761;-73
2024/01/15 03:47:51;;;;;;;14.30;8.60;;;;;;;1.92;84.63;97719.54;130658;1260;108744;-73
2024/01/15 03:50:57;;;;;;;15.70;10.20;;;;;;;1.88;84.52;97721.70;130587;1261;107596;-73
2024/01/15 03:54:03;;;;;;;16.50;9.80;;;;;;;1.81;84.52;97716.45;130552;1267;108843;-73
2024/01/15 03:57:08;;;;;;;31.80;17.50;;;;;;;1.77;84.52;97713.71;130552;1260;106574;-74
2024/01/15 04:00:17;;;;;;;95.10;38.60;;;;;;;1.77;84.54;97708.61;130572;1259;108341;-73
2024/01/15 04:03:22;;;;;;;126.60;47.90;;;;;;;1.83;84.61;97704.72;130641;1260;108896;-73
2024/01/15 04:06:28;;;;;;;32.00;14.70;;;;;;;1.90;84.42;97692.05;130551;1259;106656;-73
2024/01/15 04:09:34;;;;;;;62.80;23.50;;;;;;;1.94;84.33;97692.27;130554;1259;108504;-74
2024/01/15 04:12:39;;;;;;;257.30;74.70;;;;;;;1.98;84.18;97686.45;130548;1260;108730;-74
2024/01/15 04:15:45;;;;;;;323.00;98.50;;;;;;;1.97;84.06;97685.70;130590;1267;106121;-72
2024/01/15 04:18:50;;;;;;;259.90;75.50;;;;;;;1.97;84.12;97682.21;130559;1258;107589;-75
2024/01/15 04:21:56;;;;;;;117.60;37.80;;;;;;;1.97;84.22;97680.08;130582;1261;106050;-73
2024/01/15 04:25:01;;;;;;;209.60;69.10;;;;;;;1.94;83.95;97672.98;130558;1256;108416;-73
2024/01/15 04:28:07;;;;;;;335.10;108.50;;;;;;;1.90;84.04;97668.28;130585;1259;108678;-73
2024/01/15 04:31:23;;;;;;;288.80;91.20;;;;;;;1.83;84.30;97670.47;130567;1257;105436;-74
2024/01/15 04:34:28;;;;;;;245.30;80.20;;;;;;;1.77;84.36;97667.08;130605;1256;108440;-74
2024/01/15 04:37:34;;;;;;;138.00;46.50;;;;;;;1.76;84.54;97668.45;130534;1259;106304;-74
2024/01/15 04:40:39;;;;;;;188.60;67.60;;;;;;;1.81;84.52;97658.28;130525;1259;106354;-73
2024/01/15 04:43:45;;;;;;;253.10;91.70;;;;;;;1.86;84.32;97653.58;130511;1260;108384;-72
2024/01/15 04:46:50;;;;;;;146.40;56.00;;;;;;;1.84;84.23;97650.59;130629;1258;108582;-72
2024/01/15 04:49:56;;;;;;;100.00;38.50;;;;;;;1.82;84.28;97650.46;130576;1254;106717;-72
2024/01/15 04:53:02;;;;;;;101.30;44.10;;;;;;;1.79;84.20;97640.61;130590;1257;108478;-74
2024/01/15 04:56:08;;;;;;;189.00;85.70;;;;;;;1.75;84.23;97644.02;130593;1257;108728;-73
2024/01/15 04:59:14;;;;;;;92.70;40.10;;;;;;;1.72;84.17;97639.73;130608;1255;106591;-73
2024/01/15 05:02:20;;;;;;;69.00;33.10;;;;;;;1.73;84.24;97638.94;130588;1259;106418;-74
2024/01/15 05:05:25;;;;;;;35.10;18.40;;;;;;;1.75;84.11;97640.35;130522;1259;107562;-74
2024/01/15 05:08:31;;;;;;;26.60;14.30;;;;;;;1.76;84.08;97637.73;130550;1257;107550;-75
2024/01/15 05:11:37;;;;;;;21.10;12.90;;;;;;;1.76;83.89;97633.16;130551;1256;108444;-73
2024/01/15 05:14:42;;;;;;;20.70;14.00;;;;;;;1.77;83.92;97630.99;130569;1254;108552;-73
2024/01/15 05:17:47;;;;;;;23.60;14.90;;;;;;;1.78;83.91;97633.18;130595;1256;108833;-75
2024/01/15 05:20:53;;;;;;;38.60;23.90;;;;;;;1.77;83.89;97629.79;130577;1260;108789;-74
2024/01/15 05:23:59;;;;;;;28.20;18.60;;;;;;;1.76;83.79;97637.01;130563;1259;107555;-74
2024/01/15 05:27:05;;;;;;;20.10;13.90;;;;;;;1.74;83.80;97636.58;130570;1259;108713;-74
2024/01/15 05:30:12;;;;;;;21.70;15.10;;;;;;;1.70;83.74;97634.52;130533;1256;106246;-74
2024/01/15 05:33:18;;;;;;;18.40;12.20;;;;;;;1.69;83.72;97622.91;130629;1257;106074;-75
2024/01/15 05:36:23;;;;;;;22.30;13.70;;;;;;;1.68;83.78;97624.02;130539;1260;106616;-75
2024/01/15 05:39:29;;;;;;;26.00;16.70;;;;;;;1.72;83.73;97617.19;130537;1257;107072;-74
2024/01/15 05:42:34;;;;;;;19.40;12.50;;;;;;;1.75;83.65;97612.11;130575;1257;106669;-73
2024/01/15 05:45:50;;;;;;;17.40;11.20;;;;;;;1.76;83.56;97607.55;130556;1259;106415;-76
2024/01/15 05:48:57;;;;;;;22.10;14.40;;;;;;;1.75;83.53;97605.76;130541;1256;108528;-74
2024/01/15 05:52:02;;;;;;;15.00;10.10;;;;;;;1.74;83.61;97595.77;130552;1256;106532;-74
2024/01/15 05:55:12;;;;;;;17.00;10.20;;;;;;;1.68;83.40;97592.88;130558;1256;106680;-74
2024/01/15 05:58:17;;;;;;;18.10;12.20;;;;;;;1.63;83.39;97592.92;130631;1258;107570;-74
2024/01/15 06:01:23;;;;;;;19.00;12.90;;;;;;;1.58;83.36;97597.91;130571;1260;108588;-74
2024/01/15 06:04:29;;;;;;;18.00;11.40;;;;;;;1.56;83.46;97597.29;130598;1256;107541;-74
2024/01/15 06:07:36;;;;;;;13.80;9.00;;;;;;;1.58;83.51;97597.41;130557;1256;107799;-73
2024/01/15 06:10:42;;;;;;;14.30;9.30;;;;;;;1.63;83.59;97585.34;130783;1256;107021;-74
2024/01/15 06:13:47;;;;;;;17.60;10.40;;;;;;;1.67;83.36;97588.76;130542;1257;107507;-73
2024/01/15 06:16:54;;;;;;;17.80;11.50;;;;;;;1.70;83.44;97593.33;130598;1259;106698;-74
2024/01/15 06:20:00;;;;;;;14.70;9.80;;;;;;;1.73;83.38;97588.01;130592;1257;106466;-75
2024/01/15 06:23:06;;;;;;;16.80;9.90;;;;;;;1.73;83.18;97589.48;130601;1259;108684;-77
2024/01/15 06:26:13;;;;;;;15.20;10.10;;;;;;;1.72;83.24;97584.23;130581;1259;107492;-74
2024/01/15 06:29:19;;;;;;;14.20;9.20;;;;;;;1.68;83.27;97579.53;130564;1270;107739;-76
2024/01/15 06:32:24;;;;;;;13.40;8.80;;;;;;;1.68;83.14;97579.54;130603;1257;108525;-72
2024/01/15 06:35:30;;;;;;;16.90;10.20;;;;;;;1.66;83.36;97581.17;130527;1259;107700;-71
2024/01/15 06:38:36;;;;;;;15.90;10.30;;;;;;;1.65;83.40;97578.27;130574;1259;108748;-72
2024/01/15 06:41:43;;;;;;;12.70;8.90;;;;;;;1.67;83.43;97578.44;130636;1259;106232;-73
2024/01/15 06:44:48;;;;;;;14.60;9.10;;;;;;;1.72;83.73;97581.09;130597;1254;108032;-78
2024/01/15 06:47:54;;;;;;;15.40;10.70;;;;;;;1.78;83.81;97582.39;130617;1259;108680;-78
2024/01/15 06:50:59;;;;;;;16.20;10.60;;;;;;;1.82;84.04;97583.65;130555;1254;106395;-72
2024/01/15 06:54:05;;;;;;;16.30;10.40;;;;;;;1.82;84.32;97582.45;130672;1259;107635;-72
2024/01/15 06:57:11;;;;;;;15.90;9.70;;;;;;;1.79;84.61;97582.80;130710;1270;108732;-72
2024/01/15 07:00:19;;;;;;;16.10;10.70;;;;;;;1.76;84.66;97585.35;130658;1259;108646;-72
2024/01/15 07:03:24;;;;;;;16.00;9.90;;;;;;;1.73;84.62;97587.25;130772;1256;108617;-72
2024/01/15 07:06:30;;;;;;;16.70;9.80;;;;;;;1.72;84.57;97587.70;130508;1257;108345;-71
2024/01/15 07:09:36;;;;;;;16.00;9.10;;;;;;;1.74;84.82;97583.28;130542;1259;108768;-71
2024/01/15 07:12:44;;;;;;;63.50;30.00;;;;;;;1.81;84.93;97585.16;130509;1257;106405;-71
2024/01/15 07:15:50;;;;;;;38.20;20.10;;;;;;;1.88;84.92;97589.17;130510;1256;107706;-72
2024/01/15 07:18:55;;;;;;;70.70;33.50;;;;;;;1.93;84.90;97597.53;130594;1260;106318;-74
2024/01/15 07:22:01;;;;;;;79.70;37.40;;;;;;;1.90;84.97;97600.73;130860;1256;106613;-74
2024/01/15 07:25:07;;;;;;;97.50;48.90;;;;;;;1.82;85.19;97601.20;130550;1256;107647;-73
2024/01/15 07:28:13;;;;;;;75.90;38.50;;;;;;;1.79;85.03;97606.39;130579;1262;107487;-71
2024/01/15 07:31:20;;;;;;;73.10;36.60;;;;;;;1.78;85.11;97603.79;131047;1257;109538;-73
2024/01/15 07:34:25;;;;;;;68.60;31.90;;;;;;;1.78;85.15;97607.63;130637;1256;108632;-71
2024/01/15 07:37:31;;;;;;;90.80;41.00;;;;;;;1.71;85.15;97610.05;130581;1254;107448;-69
2024/01/15 07:40:36;;;;;;;66.20;32.50;;;;;;;1.69;85.38;97613.80;130631;1256;106765;-72
2024/01/15 07:43:43;;;;;;;51.80;26.10;;;;;;;1.68;85.49;97612.48;130607;1258;108029;-72
2024/01/15 07:46:49;;;;;;;40.40;20.90;;;;;;;1.72;85.73;97618.33;131126;1259;107529;-70
2024/01/15 07:49:55;;;;;;;87.90;41.60;;;;;;;1.80;85.57;97617.92;130708;1257;107651;-73
2024/01/15 07:53:01;;;;;;;78.20;43.40;;;;;;;1.88;85.48;97624.41;130654;1258;106901;-71
2024/01/15 07:56:07;;;;;;;94.30;51.40;;;;;;;1.93;85.58;97626.84;130664;1258;108973;-73
2024/01/15 07:59:12;;;;;;;88.30;47.80;;;;;;;1.90;85.74;97626.67;130653;1259;106574;-72
2024/01/15 08:02:18;;;;;;;66.70;38.30;;;;;;;1.85;85.66;97627.86;130537;1259;107208;-71
2024/01/15 08:05:23;;;;;;;51.30;29.00;;;;;;;1.77;85.78;97629.78;130575;1257;106764;-70
2024/01/15 08:08:29;;;;;;;41.90;25.50;;;;;;;1.70;85.64;97635.19;130450;1257;107349;-70
2024/01/15 08:11:34;;;;;;;35.80;21.40;;;;;;;1.70;85.64;97632.92;130606;1260;107666;-71
2024/01/15 08:14:40;;;;;;;116.70;47.30;;;;;;;1.69;85.65;97633.55;130672;1253;109121;-72
2024/01/15 08:17:46;;;;;;;61.50;24.40;;;;;;;1.70;85.43;97639.63;130672;1257;106845;-72
2024/01/15 08:20:52;;;;;;;59.70;23.70;;;;;;;1.73;85.28;97642.79;130701;1257;107538;-73
2024/01/15 08:23:58;;;;;;;57.40;21.70;;;;;;;1.82;84.96;97640.27;131039;1257;106793;-74
2024/01/15 08:27:04;;;;;;;66.20;27.30;;;;;;;1.88;84.46;97637.55;131073;1259;106883;-73
2024/01/15 08:30:13;;;;;;;188.40;69.70;;;;;;;2.00;84.38;97641.41;130602;1269;106460;-71
2024/01/15 08:33:18;;;;;;;248.90;87.10;;;;;;;2.07;83.97;97639.88;130621;1261;108614;-74
2024/01/15 08:36:24;;;;;;;189.60;68.40;;;;;;;2.08;83.42;97644.38;130603;1255;106618;-73
2024/01/15 08:39:29;;;;;;;443.30;169.00;;;;;;;2.07;83.34;97644.55;130677;1256;107628;-72
2024/01/15 08:42:35;;;;;;;256.20;78.90;;;;;;;2.06;83.25;97646.75;130528;1259;106438;-72
2024/01/15 08:45:41;;;;;;;471.40;126.40;;;;;;;2.07;82.96;97644.71;130546;1257;109292;-73
2024/01/15 08:48:46;;;;;;;138.20;39.10;;;;;;;2.11;82.52;97647.45;130639;1259;106558;-73
2024/01/15 08:51:52;;;;;;;419.00;101.70;;;;;;;2.14;82.16;97650.93;130597;1257;107173;-73
2024/01/15 08:54:58;;;;;;;560.70;173.20;;;;;;;2.13;81.97;97647.63;130576;1256;106282;-73
2024/01/15 08:58:04;;;;;;;684.00;258.90;;;;;;;2.20;82.41;97647.15;130574;1258;106453;-72
2024/01/15 09:01:09;;;;;;;327.10;100.10;;;;;;;2.27;82.13;97641.27;130687;1256;106330;-72
2024/01/15 09:04:15;;;;;;;294.60;124.50;;;;;;;2.35;81.79;97632.86;130856;1257;107500;-72
2024/01/15 09:07:20;;;;;;;448.40;158.90;;;;;;;2.40;81.29;97628.75;130782;1259;106389;-74
2024/01/15 09:10:26;;;;;;;205.30;56.70;;;;;;;2.43;81.62;97632.61;130548;1258;107646;-74
2024/01/15 09:13:32;;;;;;;249.70;85.20;;;;;;;2.49;81.68;97643.79;130554;1261;106282;-74
2024/01/15 09:16:37;;;;;;;303.50;104.30;;;;;;;2.51;81.00;97639.11;130670;1257;107874;-74
2024/01/15 09:19:44;;;;;;;593.00;221.30;;;;;;;2.51;80.88;97632.20;130746;1254;108259;-76
2024/01/15 09:22:51;;;;;;;201.10;67.20;;;;;;;2.51;80.85;97630.09;130503;1256;106118;-74
2024/01/15 09:25:57;;;;;;;129.70;47.90;;;;;;;2.53;80.73;97629.38;131286;1259;105693;-73
2024/01/15 09:29:06;;;;;;;179.40;85.20;;;;;;;2.52;80.45;97631.93;131401;1256;106866;-75
2024/01/15 09:32:12;;;;;;;67.00;28.70;;;;;;;2.53;80.73;97630.27;130785;1256;106144;-74
2024/01/15 09:35:18;;;;;;;29.90;16.40;;;;;;;2.57;80.99;97637.20;130641;1259;107716;-73
2024/01/15 09:38:25;;;;;;;24.80;14.20;;;;;;;2.65;80.55;97629.17;130673;1259;106203;-74
2024/01/15 09:41:31;;;;;;;13.60;7.80;;;;;;;2.73;80.30;97628.59;130832;1257;106265;-74
2024/01/15 09:44:37;;;;;;;14.60;9.70;;;;;;;2.81;80.14;97628.61;130668;1256;106586;-76
2024/01/15 09:47:43;;;;;;;13.40;7.40;;;;;;;2.87;79.94;97625.19;130675;1254;107813;-76
2024/01/15 09:51:18;;;;;;;10.90;6.40;;;;;;;2.88;79.52;97623.46;130884;1253;108187;-77
2024/01/15 09:54:35;;;;;;;10.30;6.00;;;;;;;2.92;79.52;97619.73;130944;1259;106238;-75
2024/01/15 09:57:41;;;;;;;48.80;23.00;;;;;;;2.97;79.88;97615.58;130929;1253;108886;-76
2024/01/15 10:00:50;;;;;;;72.00;29.80;;;;;;;3.07;79.35;97608.94;132764;1256;107110;-77
2024/01/15 10:03:56;;;;;;;106.20;40.40;;;;;;;3.16;79.57;97611.27;130815;1268;107221;-76
2024/01/15 10:07:03;;;;;;;97.70;36.40;;;;;;;3.27;79.89;97616.16;130624;1259;106391;-76
2024/01/15 10:10:11;;;;;;;284.60;101.10;;;;;;;3.30;79.74;97620.70;130601;1257;108491;-76
2024/01/15 10:13:17;;;;;;;195.50;60.50;;;;;;;3.28;79.78;97622.13;130579;1260;108629;-76
2024/01/15 10:16:23;;;;;;;160.80;53.50;;;;;;;3.23;79.72;97618.74;130631;1257;108605;-75
2024/01/15 10:19:29;;;;;;;157.70;43.40;;;;;;;3.19;79.47;97613.06;130730;1254;108938;-75
2024/01/15 10:22:34;;;;;;;377.40;114.80;;;;;;;3.14;79.77;97606.48;130767;1255;107635;-76
2024/01/15 10:25:42;;;;;;;255.00;74.30;;;;;;;3.18;79.98;97605.25;130717;1259;106476;-78
2024/01/15 10:28:52;;;;;;;566.70;176.40;;;;;;;3.20;79.56;97607.26;130584;1260;106965;-76
2024/01/15 10:31:57;;;;;;;317.50;89.30;;;;;;;3.28;79.81;97606.73;130656;1255;107417;-77
2024/01/15 10:35:04;;;;;;;223.40;66.20;;;;;;;3.29;78.70;97602.07;130769;1259;108558;-74
2024/01/15 10:38:09;;;;;;;171.70;57.20;;;;;;;3.22;79.30;97599.70;130607;1273;108435;-75
2024/01/15 10:41:15;;;;;;;137.60;47.90;;;;;;;3.20;78.90;97603.77;130569;1259;108637;-74
2024/01/15 10:44:21;;;;;;;143.80;47.50;;;;;;;3.19;78.83;97605.68;130599;1261;106525;-74
2024/01/15 10:47:27;;;;;;;412.10;170.50;;;;;;;3.23;78.70;97603.45;130596;1261;106533;-74
2024/01/15 10:50:34;;;;;;;252.00;94.50;;;;;;;3.28;78.74;97607.25;130659;1258;107745;-75
2024/01/15 10:53:42;;;;;;;91.10;36.30;;;;;;;3.37;79.14;97600.77;130608;1259;108440;-74
2024/01/15 10:56:48;;;;;;;69.70;32.00;;;;;;;3.43;78.84;97596.71;130612;1261;108496;-74
2024/01/15 10:59:53;;;;;;;65.90;30.50;;;;;;;3.44;78.42;97602.00;130793;1261;107126;-74
2024/01/15 11:03:01;;;;;;;32.90;16.00;;;;;;;3.41;78.40;97602.15;130911;1256;107816;-74
2024/01/15 11:06:19;;;;;;;94.40;45.30;;;;;;;3.35;78.76;97599.57;130664;1255;109570;-74
2024/01/15 11:09:25;;;;;;;46.60;25.70;;;;;;;3.36;79.43;97608.83;130565;1256;107743;-75
2024/01/15 11:12:32;;;;;;;49.90;28.10;;;;;;;3.35;79.48;97611.77;130564;1259;108679;-76
2024/01/15 11:15:56;;;;;;;61.10;35.30;;;;;;;3.27;79.57;97611.11;130805;1255;108684;-76
2024/01/15 11:19:08;;;;;;;117.40;41.70;;;;;;;3.14;79.96;97608.17;130706;1259;106331;-74
2024/01/15 11:22:43;;;;;;;106.10;43.20;;;;;;;3.08;80.19;97601.01;130525;1259;107670;-74
2024/01/15 11:25:49;;;;;;;109.10;48.70;;;;;;;3.14;80.22;97592.32;130715;1259;107059;-73
2024/01/15 11:28:54;;;;;;;134.10;58.40;;;;;;;3.21;80.10;97595.83;130580;1259;108754;-74
2024/01/15 11:32:03;;;;;;;217.00;100.30;;;;;;;3.29;79.96;97587.88;130601;1259;107583;-74
2024/01/15 11:35:10;;;;;;;42.50;20.40;;;;;;;3.35;79.91;97588.94;130624;1259;107191;-76
2024/01/15 11:38:30;;;;;;;62.20;29.50;;;;;;;3.34;79.70;97584.95;130560;1256;106956;-73
2024/01/15 11:41:35;;;;;;;29.70;16.80;;;;;;;3.34;79.67;97577.48;130619;1255;107882;-73
2024/01/15 11:44:41;;;;;;;28.30;17.10;;;;;;;3.31;79.39;97580.91;130614;1259;107732;-72
2024/01/15 11:48:15;;;;;;;16.60;9.90;;;;;;;3.26;79.16;97581.85;131017;1257;107850;-73
2024/01/15 11:51:22;;;;;;;27.30;16.80;;;;;;;3.24;79.24;97572.91;130672;1258;108645;-73
2024/01/15 11:54:33;;;;;;;19.00;12.10;;;;;;;3.26;79.14;97577.68;130696;1260;106857;-74
2024/01/15 11:57:46;;;;;;;15.20;9.30;;;;;;;3.20;79.09;97582.19;130631;1254;107453;-72
2024/01/15 12:00:54;;;;;;;27.40;19.40;;;;;;;3.11;78.84;97578.34;130630;1257;106443;-74
2024/01/15 12:04:00;;;;;;;15.60;10.00;;;;;;;3.02;78.86;97585.36;130913;1259;107098;-73
2024/01/15 12:07:06;;;;;;;29.90;16.70;;;;;;;2.97;79.06;97581.04;130700;1259;108087;-75
2024/01/15 12:10:12;;;;;;;15.10;8.50;;;;;;;2.99;78.86;97577.67;130617;1256;107750;-73
2024/01/15 12:13:19;;;;;;;14.60;7.60;;;;;;;3.02;78.83;97579.73;130626;1254;106350;-73
2024/01/15 12:16:25;;;;;;;28.20;18.70;;;;;;;3.02;78.91;97577.73;130596;1258;106377;-72
2024/01/15 12:19:31;;;;;;;17.20;11.40;;;;;;;3.00;79.18;97580.52;130811;1257;107643;-72
2024/01/15 12:22:36;;;;;;;16.30;10.40;;;;;;;2.95;79.38;97580.54;130558;1256;107602;-72
2024/01/15 12:25:42;;;;;;;16.40;9.70;;;;;;;2.88;79.50;97580.73;130564;1257;108729;-72
2024/01/15 12:28:51;;;;;;;16.10;9.20;;;;;;;2.77;79.36;97583.37;130563;1257;109476;-73
2024/01/15 12:31:56;;;;;;;18.70;10.40;;;;;;;2.73;79.64;97588.23;130617;1259;107881;-72
2024/01/15 12:35:02;;;;;;;11.80;7.90;;;;;;;2.72;79.54;97587.27;130684;1257;108707;-72
2024/01/15 12:38:08;;;;;;;13.10;8.30;;;;;;;2.68;79.38;97588.03;130589;1255;108617;-71
2024/01/15 12:41:13;;;;;;;14.00;7.60;;;;;;;2.64;79.55;97587.29;130833;1256;106771;-73
2024/01/15 12:44:19;;;;;;;75.20;35.10;;;;;;;2.65;79.28;97588.94;130553;1259;106973;-73
2024/01/15 12:47:26;;;;;;;53.00;23.10;;;;;;;2.64;79.22;97583.31;130546;1257;108544;-73
2024/01/15 12:50:31;;;;;;;124.70;53.70;;;;;;;2.70;79.12;97586.09;130727;1257;108635;-72
2024/01/15 12:53:37;;;;;;;77.10;33.20;;;;;;;2.79;78.81;97584.79;130683;1258;107822;-72
2024/01/15 12:56:42;;;;;;;159.40;66.70;;;;;;;2.79;78.22;97590.38;130665;1260;107199;-72
2024/01/15 12:59:49;;;;;;;87.50;37.90;;;;;;;2.73;78.31;97586.31;130580;1253;106853;-72
2024/01/15 13:02:57;;;;;;;81.60;34.80;;;;;;;2.71;78.54;97586.66;130633;1258;107388;-72
2024/01/15 13:06:02;;;;;;;170.50;72.00;;;;;;;2.71;78.65;97587.18;130611;1260;106680;-72
2024/01/15 13:09:10;;;;;;;266.10;123.60;;;;;;;2.69;78.39;97592.67;130580;1255;108665;-72
2024/01/15 13:12:16;;;;;;;103.80;45.50;;;;;;;2.63;78.57;97585.36;130587;1259;106726;-72
2024/01/15 13:15:22;;;;;;;42.00;19.70;;;;;;;2.61;78.63;97588.02;130624;1259;106647;-73
2024/01/15 13:18:28;;;;;;;36.10;20.60;;;;;;;2.58;78.66;97586.94;130656;1256;107026;-74
2024/01/15 13:21:33;;;;;;;28.50;16.10;;;;;;;2.54;78.71;97583.86;130620;1255;106412;-72
2024/01/15 13:24:39;;;;;;;31.90;19.30;;;;;;;2.48;78.64;97582.20;130600;1259;107006;-73
2024/01/15 13:27:44;;;;;;;32.60;17.40;;;;;;;2.43;78.49;97581.31;130558;1257;106248;-73
2024/01/15 13:30:50;;;;;;;49.80;27.40;;;;;;;2.41;78.72;97583.46;130580;1259;108754;-72
2024/01/15 13:33:56;;;;;;;65.50;31.50;;;;;;;2.44;78.39;97581.08;130628;1259;106902;-72
2024/01/15 13:37:02;;;;;;;147.20;72.60;;;;;;;2.49;78.35;97583.11;130579;1256;108494;-72
2024/01/15 13:40:15;;;;;;;42.00;19.90;;;;;;;2.53;78.25;97584.33;130677;1257;108123;-73
2024/01/15 13:43:21;;;;;;;64.90;30.30;;;;;;;2.55;78.28;97582.97;130708;1259;106734;-73
2024/01/15 13:46:28;;;;;;;161.90;85.30;;;;;;;2.60;78.30;97582.34;130537;1257;107767;-73
2024/01/15 13:49:35;;;;;;;54.70;27.30;;;;;;;2.64;78.45;97581.83;130603;1256;108460;-73
2024/01/15 13:52:41;;;;;;;36.30;16.80;;;;;;;2.65;78.28;97575.21;130878;1259;108775;-72
2024/01/15 13:55:47;;;;;;;33.80;15.70;;;;;;;2.60;78.11;97572.95;130565;1257;107773;-75
2024/01/15 13:58:53;;;;;;;63.40;34.20;;;;;;;2.55;78.16;97577.18;130546;1262;108743;-72
2024/01/15 14:01:58;;;;;;;35.20;21.40;;;;;;;2.50;78.30;97577.36;130704;1259;107576;-74
2024/01/15 14:05:04;;;;;;;39.70;22.20;;;;;;;2.46;78.12;97573.65;130720;1259;109614;-74